createdAt,value
2019-05-11T00:01:09.169Z,7.81
2019-05-11T00:03:15.546Z,7.80
2019-05-11T00:05:22.070Z,7.81
2019-05-11T00:07:28.639Z,7.83
2019-05-11T00:09:35.186Z,7.83
2019-05-11T00:11:41.614Z,7.87
2019-05-11T00:13:48.025Z,7.94
2019-05-11T00:15:54.510Z,8.00
2019-05-11T00:18:01.022Z,8.03
2019-05-11T00:20:09.326Z,8.07
2019-05-11T00:22:15.787Z,8.11
2019-05-11T00:24:22.265Z,8.14
2019-05-11T00:26:28.777Z,8.20
2019-05-11T00:28:35.271Z,8.23
2019-05-11T00:30:41.741Z,8.27
2019-05-11T00:32:48.571Z,8.30
2019-05-11T00:34:54.947Z,8.35
2019-05-11T00:37:01.454Z,8.38
2019-05-11T00:39:09.165Z,8.38
2019-05-11T00:41:15.601Z,8.37
2019-05-11T00:43:22.055Z,8.39
2019-05-11T00:45:28.528Z,8.39
2019-05-11T00:47:35.135Z,8.39
2019-05-11T00:49:41.693Z,8.37
2019-05-11T00:51:48.221Z,8.30
2019-05-11T00:53:55.340Z,8.25
2019-05-11T00:56:01.787Z,8.22
2019-05-11T00:58:08.255Z,8.16
2019-05-11T01:00:15.926Z,8.14
2019-05-11T01:02:22.313Z,8.10
2019-05-11T01:04:28.721Z,8.12
2019-05-11T01:06:35.278Z,8.12
2019-05-11T01:08:41.719Z,8.14
2019-05-11T01:10:48.144Z,8.17
2019-05-11T01:12:54.545Z,8.20
2019-05-11T01:15:01.014Z,8.23
2019-05-11T01:17:08.757Z,8.27
2019-05-11T01:19:15.365Z,8.33
2019-05-11T01:21:21.782Z,8.36
2019-05-11T01:23:28.329Z,8.44
2019-05-11T01:25:35.890Z,8.49
2019-05-11T01:27:42.305Z,8.56
2019-05-11T01:29:48.719Z,8.61
2019-05-11T01:31:55.107Z,8.65
2019-05-11T01:34:01.498Z,8.71
2019-05-11T01:36:07.990Z,8.73
2019-05-11T01:38:14.490Z,8.78
2019-05-11T01:40:21.087Z,8.81
2019-05-11T01:42:27.497Z,8.84
2019-05-11T01:44:34.034Z,8.88
2019-05-11T01:46:40.423Z,8.92
2019-05-11T01:48:46.864Z,8.97
2019-05-11T01:50:54.491Z,9.00
2019-05-11T01:53:00.967Z,9.02
2019-05-11T01:55:07.681Z,9.07
2019-05-11T01:57:14.092Z,9.10
2019-05-11T01:59:20.525Z,9.12
2019-05-11T02:01:28.124Z,9.16
2019-05-11T02:03:34.636Z,9.20
2019-05-11T02:05:41.126Z,9.22
2019-05-11T02:07:47.526Z,9.25
2019-05-11T02:09:53.955Z,9.30
2019-05-11T02:12:00.501Z,9.35
2019-05-11T02:14:06.969Z,9.37
2019-05-11T02:16:13.373Z,9.38
2019-05-11T02:18:19.875Z,9.40
2019-05-11T02:20:26.472Z,9.41
2019-05-11T02:22:32.900Z,9.43
2019-05-11T02:24:39.298Z,9.42
2019-05-11T02:26:45.811Z,9.43
2019-05-11T02:28:52.197Z,9.45
2019-05-11T02:30:58.682Z,9.46
2019-05-11T02:33:05.133Z,9.47
2019-05-11T02:35:12.223Z,9.48
2019-05-11T02:37:18.647Z,9.46
2019-05-11T02:39:25.054Z,9.45
2019-05-11T02:41:36.176Z,9.45
2019-05-11T02:43:39.875Z,9.42
2019-05-11T02:45:46.360Z,9.39
2019-05-11T02:47:52.780Z,9.38
2019-05-11T02:49:59.251Z,9.37
2019-05-11T02:52:06.011Z,9.38
2019-05-11T02:54:13.065Z,9.40
2019-05-11T02:56:19.570Z,9.41
2019-05-11T02:58:26.030Z,9.41
2019-05-11T03:00:44.728Z,9.41
2019-05-11T03:02:51.110Z,9.41
2019-05-11T03:04:57.648Z,9.42
2019-05-11T03:07:04.132Z,9.44
2019-05-11T03:09:10.583Z,9.47
2019-05-11T03:11:18.330Z,9.49
2019-05-11T03:13:24.833Z,9.51
2019-05-11T03:15:31.528Z,9.52
2019-05-11T03:17:37.910Z,9.56
2019-05-11T03:19:44.516Z,9.55
2019-05-11T03:21:51.019Z,9.56
2019-05-11T03:23:57.430Z,9.57
2019-05-11T03:26:04.011Z,9.57
2019-05-11T03:28:10.499Z,9.53
2019-05-11T03:30:17.431Z,9.53
2019-05-11T03:32:23.908Z,9.53
2019-05-11T03:34:30.401Z,9.51
2019-05-11T03:36:36.787Z,9.52
2019-05-11T03:38:43.204Z,9.51
2019-05-11T03:40:49.597Z,9.52
2019-05-11T03:42:56.048Z,9.56
2019-05-11T03:45:02.542Z,9.58
2019-05-11T03:47:09.157Z,9.62
2019-05-11T03:49:15.631Z,9.65
2019-05-11T03:51:22.032Z,9.70
2019-05-11T03:53:28.534Z,9.74
2019-05-11T03:55:34.976Z,9.77
2019-05-11T03:57:41.482Z,9.81
2019-05-11T03:59:47.905Z,9.85
2019-05-11T04:01:55.439Z,9.90
2019-05-11T04:04:01.878Z,9.93
2019-05-11T04:06:08.361Z,9.96
2019-05-11T04:08:14.772Z,10.01
2019-05-11T04:10:24.828Z,10.07
2019-05-11T04:12:35.507Z,10.11
2019-05-11T04:14:38.790Z,10.16
2019-05-11T04:16:45.306Z,10.23
2019-05-11T04:18:51.709Z,10.29
2019-05-11T04:20:58.121Z,10.35
2019-05-11T04:23:04.596Z,10.42
2019-05-11T04:25:11.687Z,10.51
2019-05-11T04:27:19.608Z,10.61
2019-05-11T04:29:26.458Z,10.74
2019-05-11T04:31:32.935Z,10.87
2019-05-11T04:33:39.348Z,11.02
2019-05-11T04:35:45.861Z,11.19
2019-05-11T04:37:52.308Z,11.33
2019-05-11T04:39:58.658Z,11.48
2019-05-11T04:42:05.387Z,11.59
2019-05-11T04:44:12.089Z,11.72
2019-05-11T04:46:18.572Z,11.91
2019-05-11T04:48:25.409Z,12.03
2019-05-11T04:50:31.921Z,12.12
2019-05-11T04:52:38.361Z,12.26
2019-05-11T04:54:44.842Z,12.32
2019-05-11T04:56:51.463Z,12.31
2019-05-11T04:58:57.932Z,12.30
2019-05-11T05:01:06.037Z,12.35
2019-05-11T05:03:12.622Z,12.41
2019-05-11T05:05:19.087Z,12.51
2019-05-11T05:07:25.626Z,12.68
2019-05-11T05:09:35.901Z,12.88
2019-05-11T05:11:40.240Z,13.03
2019-05-11T05:13:46.712Z,13.16
2019-05-11T05:15:53.172Z,13.38
2019-05-11T05:17:59.601Z,13.55
2019-05-11T05:20:09.295Z,13.62
2019-05-11T05:22:15.785Z,13.64
2019-05-11T05:24:23.270Z,13.62
2019-05-11T05:26:29.673Z,13.69
2019-05-11T05:28:36.139Z,13.72
2019-05-11T05:30:42.642Z,13.70
2019-05-11T05:32:49.105Z,13.73
2019-05-11T05:34:55.499Z,13.68
2019-05-11T05:37:02.188Z,13.83
2019-05-11T05:39:09.449Z,13.93
2019-05-11T05:41:16.001Z,14.06
2019-05-11T05:43:27.719Z,14.02
2019-05-11T05:45:30.652Z,14.22
2019-05-11T05:47:37.130Z,14.28
2019-05-11T05:49:43.574Z,14.32
2019-05-11T05:51:50.119Z,14.38
2019-05-11T05:53:56.525Z,14.46
2019-05-11T05:56:03.049Z,14.53
2019-05-11T05:58:09.443Z,14.68
2019-05-11T06:00:16.135Z,14.70
2019-05-11T06:02:22.599Z,14.80
2019-05-11T06:04:29.968Z,14.91
2019-05-11T06:06:36.403Z,15.15
2019-05-11T06:08:43.376Z,15.35
2019-05-11T06:10:49.925Z,15.43
2019-05-11T06:12:56.500Z,15.70
2019-05-11T06:15:02.977Z,15.88
2019-05-11T06:17:09.449Z,16.20
2019-05-11T06:19:15.884Z,16.38
2019-05-11T06:21:22.370Z,16.39
2019-05-11T06:23:28.878Z,16.34
2019-05-11T06:25:35.370Z,16.40
2019-05-11T06:27:41.884Z,16.63
2019-05-11T06:29:48.370Z,16.94
2019-05-11T06:31:54.828Z,17.59
2019-05-11T06:34:01.343Z,18.53
2019-05-11T06:36:07.751Z,19.35
2019-05-11T06:38:14.161Z,19.99
2019-05-11T06:40:21.494Z,20.52
2019-05-11T06:42:29.214Z,20.78
2019-05-11T06:44:35.613Z,21.92
2019-05-11T06:46:42.043Z,22.38
2019-05-11T06:48:48.523Z,23.32
2019-05-11T06:50:54.910Z,23.87
2019-05-11T06:53:01.411Z,24.63
2019-05-11T06:55:08.218Z,25.65
2019-05-11T06:57:14.689Z,25.52
2019-05-11T06:59:21.206Z,24.94
2019-05-11T07:01:27.775Z,26.67
2019-05-11T07:03:34.329Z,27.51
2019-05-11T07:05:41.929Z,27.79
2019-05-11T07:07:48.336Z,27.53
2019-05-11T07:09:54.726Z,27.45
2019-05-11T07:12:01.245Z,28.18
2019-05-11T07:14:19.892Z,29.02
2019-05-11T07:16:16.076Z,30.54
2019-05-11T07:18:22.597Z,30.33
2019-05-11T07:20:29.129Z,27.63
2019-05-11T07:22:35.523Z,25.11
2019-05-11T07:24:41.946Z,23.70
2019-05-11T07:26:48.370Z,22.88
2019-05-11T07:28:58.016Z,22.43
2019-05-11T07:31:04.401Z,22.52
2019-05-11T07:33:10.937Z,22.37
2019-05-11T07:35:18.808Z,21.50
2019-05-11T07:37:27.851Z,21.12
2019-05-11T07:39:34.563Z,20.64
2019-05-11T07:41:42.056Z,20.67
2019-05-11T07:43:50.066Z,21.20
2019-05-11T07:45:58.470Z,23.58
2019-05-11T07:48:04.769Z,26.33
2019-05-11T07:50:11.479Z,28.84
2019-05-11T07:52:19.144Z,29.19
2019-05-11T07:54:27.910Z,27.53
2019-05-11T07:56:33.876Z,26.74
2019-05-11T07:58:40.448Z,25.31
2019-05-11T08:00:48.863Z,24.24
2019-05-11T08:02:58.299Z,23.69
2019-05-11T08:05:05.549Z,23.14
2019-05-11T08:07:13.194Z,23.14
2019-05-11T08:09:19.625Z,23.03
2019-05-11T08:11:28.908Z,23.07
2019-05-11T08:13:34.221Z,23.04
2019-05-11T08:15:40.746Z,22.55
2019-05-11T08:17:48.742Z,22.11
2019-05-11T08:19:57.932Z,21.95
2019-05-11T08:22:04.025Z,21.63
2019-05-11T08:24:10.428Z,21.31
2019-05-11T08:26:19.040Z,21.96
2019-05-11T08:28:25.026Z,22.16
2019-05-11T08:30:33.028Z,22.50
2019-05-11T08:32:40.898Z,22.68
2019-05-11T08:34:49.110Z,22.44
2019-05-11T08:36:55.584Z,22.20
2019-05-11T08:39:02.117Z,21.74
2019-05-11T08:41:09.801Z,21.25
2019-05-11T08:43:17.990Z,21.28
2019-05-11T08:45:25.016Z,20.84
2019-05-11T08:47:32.348Z,20.35
2019-05-11T08:49:38.753Z,20.53
2019-05-11T08:51:47.658Z,20.55
2019-05-11T08:53:53.368Z,20.39
2019-05-11T08:56:01.092Z,20.32
2019-05-11T08:58:08.638Z,20.35
2019-05-11T09:00:17.894Z,19.85
2019-05-11T09:02:24.318Z,20.13
2019-05-11T09:04:30.704Z,20.31
2019-05-11T09:06:37.769Z,20.26
2019-05-11T09:08:44.269Z,20.41
2019-05-11T09:10:51.769Z,20.53
2019-05-11T09:12:59.044Z,20.38
2019-05-11T09:15:08.766Z,20.48
2019-05-11T09:17:15.564Z,20.58
2019-05-11T09:19:23.298Z,20.36
2019-05-11T09:21:30.851Z,19.62
2019-05-11T09:23:40.521Z,19.37
2019-05-11T09:25:47.568Z,19.26
2019-05-11T09:27:53.787Z,19.62
2019-05-11T09:30:00.270Z,20.03
2019-05-11T09:32:08.871Z,20.28
2019-05-11T09:34:15.293Z,20.52
2019-05-11T09:36:22.106Z,20.48
2019-05-11T09:38:28.606Z,20.38
2019-05-11T09:40:35.302Z,20.66
2019-05-11T09:42:41.836Z,20.60
2019-05-11T09:44:48.707Z,20.71
2019-05-11T09:46:58.710Z,20.83
2019-05-11T09:49:03.386Z,20.86
2019-05-11T09:51:09.879Z,20.41
2019-05-11T09:53:17.668Z,20.21
2019-05-11T09:55:24.467Z,19.58
2019-05-11T09:57:30.991Z,19.42
2019-05-11T09:59:38.507Z,19.23
2019-05-11T10:01:45.534Z,19.06
2019-05-11T10:03:51.915Z,19.19
2019-05-11T10:05:58.311Z,19.26
2019-05-11T10:08:04.993Z,19.36
2019-05-11T10:10:11.652Z,19.40
2019-05-11T10:12:19.282Z,19.13
2019-05-11T10:14:25.738Z,18.71
2019-05-11T10:16:32.139Z,18.94
2019-05-11T10:18:38.770Z,19.53
2019-05-11T10:20:48.016Z,19.92
2019-05-11T10:22:53.881Z,20.01
2019-05-11T10:25:00.359Z,19.97
2019-05-11T10:27:08.428Z,19.85
2019-05-11T10:29:15.117Z,19.88
2019-05-11T10:31:21.708Z,19.92
2019-05-11T10:33:28.305Z,19.90
2019-05-11T10:35:34.791Z,19.88
2019-05-11T10:37:41.243Z,19.76
2019-05-11T10:39:48.833Z,19.99
2019-05-11T10:41:55.358Z,20.10
2019-05-11T10:44:01.809Z,20.10
2019-05-11T10:46:18.009Z,19.95
2019-05-11T10:48:17.732Z,19.52
2019-05-11T10:50:24.756Z,19.72
2019-05-11T10:52:31.262Z,19.96
2019-05-11T10:54:39.685Z,20.05
2019-05-11T10:56:48.026Z,20.12
2019-05-11T10:58:54.093Z,19.97
2019-05-11T11:01:00.625Z,20.06
2019-05-11T11:03:08.568Z,20.07
2019-05-11T11:05:15.366Z,20.05
2019-05-11T11:07:21.837Z,20.31
2019-05-11T11:09:28.441Z,20.22
2019-05-11T11:11:35.037Z,20.37
2019-05-11T11:13:41.431Z,20.57
2019-05-11T11:15:48.585Z,20.25
2019-05-11T11:17:57.753Z,20.20
2019-05-11T11:20:04.611Z,20.14
2019-05-11T11:22:33.311Z,19.97
2019-05-11T11:24:19.562Z,19.92
2019-05-11T11:26:25.993Z,19.94
2019-05-11T11:28:32.392Z,19.95
2019-05-11T11:30:38.964Z,19.87
2019-05-11T11:32:48.094Z,19.73
2019-05-11T11:34:53.937Z,19.54
2019-05-11T11:37:00.405Z,19.44
2019-05-11T11:39:08.492Z,19.22
2019-05-11T11:41:17.869Z,19.14
2019-05-11T11:43:28.676Z,19.33
2019-05-11T11:45:34.777Z,19.55
2019-05-11T11:47:41.310Z,19.50
2019-05-11T11:49:47.812Z,19.58
2019-05-11T11:51:54.276Z,19.73
2019-05-11T11:54:00.911Z,20.01
2019-05-11T11:56:08.283Z,19.79
2019-05-11T11:58:15.093Z,19.73
2019-05-11T12:00:21.810Z,19.98
2019-05-11T12:02:28.351Z,20.18
2019-05-11T12:04:34.738Z,20.52
2019-05-11T12:06:41.140Z,20.77
2019-05-11T12:08:49.663Z,20.81
2019-05-11T12:10:55.952Z,20.87
2019-05-11T12:13:03.526Z,20.88
2019-05-11T12:15:10.328Z,20.91
2019-05-11T12:17:18.284Z,20.87
2019-05-11T12:19:24.848Z,20.63
2019-05-11T12:21:31.285Z,20.25
2019-05-11T12:23:38.303Z,20.24
2019-05-11T12:25:45.159Z,20.27
2019-05-11T12:27:51.659Z,20.12
2019-05-11T12:29:58.365Z,20.02
2019-05-11T12:32:08.185Z,19.90
2019-05-11T12:34:14.907Z,19.65
2019-05-11T12:36:22.389Z,19.31
2019-05-11T12:38:29.857Z,19.11
2019-05-11T12:40:38.653Z,19.01
2019-05-11T12:42:44.512Z,19.06
2019-05-11T12:44:50.951Z,18.97
2019-05-11T12:46:58.313Z,18.95
2019-05-11T12:49:07.322Z,19.03
2019-05-11T12:51:13.433Z,19.09
2019-05-11T12:53:19.882Z,19.23
2019-05-11T12:55:28.447Z,19.38
2019-05-11T12:57:34.499Z,19.44
2019-05-11T12:59:42.139Z,19.61
2019-05-11T13:01:48.770Z,19.77
2019-05-11T13:03:55.210Z,19.83
2019-05-11T13:06:01.716Z,19.86
2019-05-11T13:08:08.295Z,19.97
2019-05-11T13:10:17.752Z,20.09
2019-05-11T13:12:24.660Z,20.07
2019-05-11T13:14:32.126Z,20.06
2019-05-11T13:16:38.708Z,19.96
2019-05-11T13:18:45.184Z,19.89
2019-05-11T13:20:51.650Z,19.69
2019-05-11T13:22:58.886Z,19.69
2019-05-11T13:25:08.515Z,19.62
2019-05-11T13:27:17.855Z,19.56
2019-05-11T13:29:24.880Z,19.47
2019-05-11T13:31:31.280Z,19.50
2019-05-11T13:33:38.436Z,19.55
2019-05-11T13:35:45.039Z,19.49
2019-05-11T13:37:51.513Z,19.52
2019-05-11T13:39:58.090Z,19.49
2019-05-11T13:42:04.682Z,19.51
2019-05-11T13:44:11.148Z,19.49
2019-05-11T13:46:19.103Z,19.52
2019-05-11T13:48:25.542Z,19.50
2019-05-11T13:50:32.041Z,19.40
2019-05-11T13:52:38.784Z,19.37
2019-05-11T13:54:45.278Z,19.29
2019-05-11T13:56:51.688Z,19.19
2019-05-11T13:58:59.871Z,19.11
2019-05-11T14:01:08.113Z,18.86
2019-05-11T14:03:14.926Z,18.74
2019-05-11T14:05:21.379Z,18.74
2019-05-11T14:07:27.812Z,18.81
2019-05-11T14:09:34.319Z,18.82
2019-05-11T14:11:44.902Z,18.76
2019-05-11T14:13:50.215Z,18.88
2019-05-11T14:15:58.669Z,18.89
2019-05-11T14:18:08.683Z,19.05
2019-05-11T14:20:13.378Z,19.16
2019-05-11T14:22:19.848Z,19.34
2019-05-11T14:24:28.647Z,19.52
2019-05-11T14:26:34.715Z,19.70
2019-05-11T14:28:42.311Z,19.85
2019-05-11T14:30:48.803Z,20.02
2019-05-11T14:32:55.365Z,20.03
2019-05-11T14:35:01.973Z,19.87
2019-05-11T14:37:09.610Z,19.82
2019-05-11T14:39:18.789Z,19.93
2019-05-11T14:41:24.413Z,19.90
2019-05-11T14:43:30.941Z,19.96
2019-05-11T14:45:38.085Z,19.93
2019-05-11T14:47:47.749Z,19.98
2019-05-11T14:49:53.042Z,19.98
2019-05-11T14:51:59.678Z,19.97
2019-05-11T14:54:08.226Z,19.96
2019-05-11T14:56:14.327Z,19.81
2019-05-11T14:58:20.786Z,19.43
2019-05-11T15:00:28.962Z,19.41
2019-05-11T15:02:50.084Z,19.47
2019-05-11T15:04:58.541Z,19.57
2019-05-11T15:07:04.391Z,19.57
2019-05-11T15:09:10.818Z,19.62
2019-05-11T15:11:19.174Z,19.53
2019-05-11T15:13:25.456Z,19.55
2019-05-11T15:15:31.999Z,19.54
2019-05-11T15:17:39.652Z,19.63
2019-05-11T15:19:46.283Z,19.63
2019-05-11T15:21:52.778Z,19.62
2019-05-11T15:23:59.598Z,19.68
2019-05-11T15:26:10.036Z,19.65
2019-05-11T15:28:18.158Z,19.52
2019-05-11T15:30:25.015Z,19.58
2019-05-11T15:32:31.492Z,19.60
2019-05-11T15:34:38.000Z,19.57
2019-05-11T15:36:44.386Z,19.55
2019-05-11T15:38:50.889Z,19.56
2019-05-11T15:40:57.964Z,19.39
2019-05-11T15:43:04.519Z,19.32
2019-05-11T15:45:11.863Z,19.26
2019-05-11T15:47:18.257Z,19.17
2019-05-11T15:49:24.706Z,19.13
2019-05-11T15:51:31.107Z,19.02
2019-05-11T15:53:37.555Z,18.92
2019-05-11T15:55:44.057Z,18.80
2019-05-11T15:57:50.580Z,18.67
2019-05-11T15:59:58.373Z,18.59
2019-05-11T16:02:05.056Z,18.52
2019-05-11T16:04:11.455Z,18.48
2019-05-11T16:06:18.515Z,18.45
2019-05-11T16:08:25.208Z,18.44
2019-05-11T16:10:31.614Z,18.36
2019-05-11T16:12:39.026Z,18.33
2019-05-11T16:14:45.813Z,18.31
2019-05-11T16:16:52.208Z,18.27
2019-05-11T16:19:10.709Z,18.25
2019-05-11T16:21:07.674Z,18.18
2019-05-11T16:23:14.371Z,18.14
2019-05-11T16:25:20.969Z,18.16
2019-05-11T16:27:28.464Z,18.15
2019-05-11T16:29:35.021Z,18.16
2019-05-11T16:31:41.449Z,18.18
2019-05-11T16:33:48.476Z,18.20
2019-05-11T16:35:55.021Z,18.22
2019-05-11T16:38:01.469Z,18.22
2019-05-11T16:40:09.637Z,18.21
2019-05-11T16:42:16.280Z,18.21
2019-05-11T16:44:22.782Z,18.20
2019-05-11T16:46:29.286Z,18.16
2019-05-11T16:48:38.122Z,18.14
2019-05-11T16:50:44.007Z,18.12
2019-05-11T16:52:50.688Z,18.08
2019-05-11T16:54:58.327Z,18.07
2019-05-11T16:57:04.856Z,18.05
2019-05-11T16:59:11.332Z,18.04
2019-05-11T17:01:18.802Z,17.98
2019-05-11T17:03:27.740Z,17.93
2019-05-11T17:05:34.039Z,17.86
2019-05-11T17:07:40.524Z,17.80
2019-05-11T17:09:48.280Z,17.71
2019-05-11T17:11:55.030Z,17.64
2019-05-11T17:14:01.456Z,17.60
2019-05-11T17:16:08.694Z,17.54
2019-05-11T17:18:15.325Z,17.47
2019-05-11T17:20:23.468Z,17.40
2019-05-11T17:22:29.980Z,17.34
2019-05-11T17:24:37.914Z,17.26
2019-05-11T17:26:44.749Z,17.20
2019-05-11T17:28:51.208Z,17.14
2019-05-11T17:30:59.793Z,17.07
2019-05-11T17:33:08.217Z,17.01
2019-05-11T17:35:14.324Z,16.96
2019-05-11T17:37:20.776Z,16.88
2019-05-11T17:39:28.160Z,16.82
2019-05-11T17:41:34.899Z,16.76
2019-05-11T17:43:41.349Z,16.68
2019-05-11T17:45:48.131Z,16.58
2019-05-11T17:47:54.771Z,16.50
2019-05-11T17:50:03.844Z,16.44
2019-05-11T17:52:09.353Z,16.37
2019-05-11T17:54:17.800Z,16.29
2019-05-11T17:56:23.922Z,16.22
2019-05-11T17:58:30.331Z,16.15
2019-05-11T18:00:39.225Z,16.06
2019-05-11T18:02:48.970Z,15.97
2019-05-11T18:04:58.386Z,15.87
2019-05-11T18:07:06.327Z,15.80
2019-05-11T18:09:12.884Z,15.72
2019-05-11T18:11:21.118Z,15.64
2019-05-11T18:13:28.388Z,15.57
2019-05-11T18:15:35.309Z,15.48
2019-05-11T18:17:41.904Z,15.41
2019-05-11T18:19:48.302Z,15.32
2019-05-11T18:21:54.890Z,15.22
2019-05-11T18:24:01.339Z,15.07
2019-05-11T18:26:08.817Z,14.94
2019-05-11T18:28:17.996Z,14.82
2019-05-11T18:30:23.899Z,14.71
2019-05-11T18:32:30.296Z,14.57
2019-05-11T18:34:37.725Z,14.47
2019-05-11T18:36:44.424Z,14.37
2019-05-11T18:38:50.821Z,14.25
2019-05-11T18:40:58.679Z,14.18
2019-05-11T18:43:05.090Z,14.11
2019-05-11T18:45:11.753Z,14.03
2019-05-11T18:47:19.065Z,13.96
2019-05-11T18:49:25.515Z,13.90
2019-05-11T18:51:31.929Z,13.85
2019-05-11T18:53:38.330Z,13.81
2019-05-11T18:55:44.733Z,13.77
2019-05-11T18:57:51.322Z,13.72
2019-05-11T18:59:58.755Z,13.67
2019-05-11T19:02:08.227Z,13.59
2019-05-11T19:04:13.656Z,13.50
2019-05-11T19:06:20.489Z,13.42
2019-05-11T19:08:27.925Z,13.35
2019-05-11T19:10:34.798Z,13.29
2019-05-11T19:12:41.199Z,13.21
2019-05-11T19:14:48.031Z,13.14
2019-05-11T19:16:54.469Z,13.07
2019-05-11T19:19:00.860Z,12.99
2019-05-11T19:21:09.155Z,12.93
2019-05-11T19:23:15.514Z,12.87
2019-05-11T19:25:22.114Z,12.81
2019-05-11T19:27:28.944Z,12.77
2019-05-11T19:29:37.723Z,12.73
2019-05-11T19:31:44.020Z,12.65
2019-05-11T19:33:50.501Z,12.55
2019-05-11T19:35:58.737Z,12.49
2019-05-11T19:38:05.584Z,12.41
2019-05-11T19:40:13.280Z,12.35
2019-05-11T19:42:19.944Z,12.32
2019-05-11T19:44:27.978Z,12.31
2019-05-11T19:46:34.747Z,12.29
2019-05-11T19:48:41.329Z,12.25
2019-05-11T19:51:03.790Z,12.23
2019-05-11T19:52:59.402Z,12.20
2019-05-11T19:55:08.539Z,12.16
2019-05-11T19:57:17.719Z,12.10
2019-05-11T19:59:23.315Z,12.00
2019-05-11T20:01:29.794Z,11.94
2019-05-11T20:03:37.835Z,11.86
2019-05-11T20:05:44.562Z,11.81
2019-05-11T20:07:51.006Z,11.75
2019-05-11T20:09:57.401Z,11.69
2019-05-11T20:12:03.874Z,11.64
2019-05-11T20:14:10.292Z,11.59
2019-05-11T20:16:18.691Z,11.55
2019-05-11T20:18:28.658Z,11.49
2019-05-11T20:20:37.553Z,11.45
2019-05-11T20:22:43.611Z,11.41
2019-05-11T20:24:49.999Z,11.38
2019-05-11T20:26:56.434Z,11.35
2019-05-11T20:29:03.027Z,11.31
2019-05-11T20:31:09.530Z,11.27
2019-05-11T20:33:15.935Z,11.23
2019-05-11T20:35:23.926Z,11.19
2019-05-11T20:37:30.418Z,11.16
2019-05-11T20:39:37.923Z,11.14
2019-05-11T20:41:44.723Z,11.12
2019-05-11T20:43:52.441Z,11.12
2019-05-11T20:45:58.837Z,11.12
2019-05-11T20:48:07.756Z,11.13
2019-05-11T20:50:13.934Z,11.08
2019-05-11T20:52:20.543Z,11.08
2019-05-11T20:54:28.163Z,11.11
2019-05-11T20:56:34.846Z,11.11
2019-05-11T20:58:59.209Z,11.08
2019-05-11T21:01:04.988Z,11.05
2019-05-11T21:03:11.678Z,10.99
2019-05-11T21:05:19.833Z,10.95
2019-05-11T21:07:28.025Z,10.92
2019-05-11T21:09:34.575Z,10.89
2019-05-11T21:11:41.642Z,10.87
2019-05-11T21:13:48.247Z,10.87
2019-05-11T21:15:59.104Z,10.87
2019-05-11T21:18:05.026Z,10.90
2019-05-11T21:20:12.218Z,10.91
2019-05-11T21:22:18.619Z,10.92
2019-05-11T21:24:25.015Z,10.92
2019-05-11T21:26:31.461Z,10.91
2019-05-11T21:28:38.080Z,10.90
2019-05-11T21:30:44.620Z,10.89
2019-05-11T21:32:51.189Z,10.87
2019-05-11T21:34:58.367Z,10.85
2019-05-11T21:37:07.730Z,10.84
2019-05-11T21:39:14.087Z,10.82
2019-05-11T21:41:20.704Z,10.79
2019-05-11T21:43:27.215Z,10.76
2019-05-11T21:45:33.694Z,10.73
2019-05-11T21:47:40.415Z,10.72
2019-05-11T21:49:48.486Z,10.70
2019-05-11T21:52:04.125Z,10.69
2019-05-11T21:54:03.017Z,10.68
2019-05-11T21:56:09.547Z,10.70
2019-05-11T21:58:18.292Z,10.70
2019-05-11T22:00:28.113Z,10.68
2019-05-11T22:02:38.411Z,10.65
2019-05-11T22:04:44.923Z,10.59
2019-05-11T22:06:51.499Z,10.52
2019-05-11T22:08:58.951Z,10.46
2019-05-11T22:11:05.696Z,10.37
2019-05-11T22:13:12.153Z,10.32
2019-05-11T22:15:19.076Z,10.27
2019-05-11T22:17:25.489Z,10.25
2019-05-11T22:19:31.973Z,10.19
2019-05-11T22:21:38.370Z,10.13
2019-05-11T22:23:44.848Z,10.07
2019-05-11T22:25:51.316Z,10.04
2019-05-11T22:27:57.760Z,10.03
2019-05-11T22:30:08.182Z,10.03
2019-05-11T22:32:14.289Z,10.00
2019-05-11T22:34:20.792Z,9.99
2019-05-11T22:36:28.186Z,9.97
2019-05-11T22:38:34.899Z,9.93
2019-05-11T22:40:41.470Z,9.88
2019-05-11T22:42:47.859Z,9.87
2019-05-11T22:44:54.245Z,9.85
2019-05-11T22:47:00.649Z,9.84
2019-05-11T22:49:08.453Z,9.82
2019-05-11T22:51:15.144Z,9.81
2019-05-11T22:53:21.684Z,9.79
2019-05-11T22:55:28.081Z,9.77
2019-05-11T22:57:34.555Z,9.75
2019-05-11T22:59:40.961Z,9.79
2019-05-11T23:01:48.340Z,9.82
2019-05-11T23:03:55.054Z,9.82
2019-05-11T23:06:01.511Z,9.80
2019-05-11T23:08:08.102Z,9.79
2019-05-11T23:10:14.715Z,9.77
2019-05-11T23:12:21.195Z,9.76
2019-05-11T23:14:28.230Z,9.76
2019-05-11T23:16:34.895Z,9.74
2019-05-11T23:18:41.282Z,9.70
2019-05-11T23:20:47.967Z,9.68
2019-05-11T23:23:00.577Z,9.65
2019-05-11T23:25:02.457Z,9.62
2019-05-11T23:27:08.928Z,9.61
2019-05-11T23:29:15.390Z,9.60
2019-05-11T23:31:21.851Z,9.59
2019-05-11T23:33:28.245Z,9.57
2019-05-11T23:35:34.735Z,9.56
2019-05-11T23:37:42.653Z,9.56
2019-05-11T23:39:49.183Z,9.53
2019-05-11T23:41:55.577Z,9.54
2019-05-11T23:44:01.971Z,9.53
2019-05-11T23:46:08.428Z,9.50
2019-05-11T23:48:14.924Z,9.48
2019-05-11T23:50:21.656Z,9.47
2019-05-11T23:52:29.575Z,9.46
2019-05-11T23:54:38.199Z,9.45
2019-05-11T23:56:44.210Z,9.44
2019-05-11T23:58:50.667Z,9.45
